sensor_id;sensor_type;location;lat;lon;timestamp;P1;durP1;ratioP1;P2;durP2;ratioP2
54545;SDS011;40444;45.184;9.850;2023-11-22T00:00:02;29.70;;;22.48;;
54545;SDS011;40444;45.184;9.850;2023-11-22T00:02:34;31.83;;;23.33;;
54545;SDS011;40444;45.184;9.850;2023-11-22T00:05:03;34.75;;;23.80;;
54545;SDS011;40444;45.184;9.850;2023-11-22T00:07:33;39.40;;;26.17;;
54545;SDS011;40444;45.184;9.850;2023-11-22T00:10:01;39.80;;;26.58;;
54545;SDS011;40444;45.184;9.850;2023-11-22T00:12:32;35.58;;;26.23;;
54545;SDS011;40444;45.184;9.850;2023-11-22T00:15:06;36.70;;;26.30;;
54545;SDS011;40444;45.184;9.850;2023-11-22T00:18:29;32.22;;;24.23;;
54545;SDS011;40444;45.184;9.850;2023-11-22T00:20:58;34.17;;;24.38;;
54545;SDS011;40444;45.184;9.850;2023-11-22T00:23:27;38.65;;;23.73;;
54545;SDS011;40444;45.184;9.850;2023-11-22T00:25:57;36.47;;;24.77;;
54545;SDS011;40444;45.184;9.850;2023-11-22T00:28:26;33.22;;;23.88;;
54545;SDS011;40444;45.184;9.850;2023-11-22T00:31:10;36.13;;;25.05;;
54545;SDS011;40444;45.184;9.850;2023-11-22T00:33:38;37.83;;;25.05;;
54545;SDS011;40444;45.184;9.850;2023-11-22T00:39:02;37.17;;;23.90;;
54545;SDS011;40444;45.184;9.850;2023-11-22T00:41:31;31.73;;;22.02;;
54545;SDS011;40444;45.184;9.850;2023-11-22T00:44:00;31.85;;;21.83;;
54545;SDS011;40444;45.184;9.850;2023-11-22T00:46:28;31.63;;;23.63;;
54545;SDS011;40444;45.184;9.850;2023-11-22T00:49:00;29.65;;;21.42;;
54545;SDS011;40444;45.184;9.850;2023-11-22T00:51:28;31.90;;;23.08;;
54545;SDS011;40444;45.184;9.850;2023-11-22T00:53:58;29.55;;;21.23;;
54545;SDS011;40444;45.184;9.850;2023-11-22T00:56:27;30.08;;;21.35;;
54545;SDS011;40444;45.184;9.850;2023-11-22T00:58:56;32.22;;;22.15;;
54545;SDS011;40444;45.184;9.850;2023-11-22T01:01:27;30.25;;;21.27;;
54545;SDS011;40444;45.184;9.850;2023-11-22T01:03:57;28.92;;;21.15;;
54545;SDS011;40444;45.184;9.850;2023-11-22T01:06:25;34.35;;;22.88;;
54545;SDS011;40444;45.184;9.850;2023-11-22T01:08:55;28.52;;;21.02;;
54545;SDS011;40444;45.184;9.850;2023-11-22T01:11:23;31.85;;;23.83;;
54545;SDS011;40444;45.184;9.850;2023-11-22T01:13:52;29.65;;;22.27;;
54545;SDS011;40444;45.184;9.850;2023-11-22T01:16:20;36.72;;;23.85;;
54545;SDS011;40444;45.184;9.850;2023-11-22T01:18:49;34.22;;;22.77;;
54545;SDS011;40444;45.184;9.850;2023-11-22T01:21:17;30.75;;;21.05;;
54545;SDS011;40444;45.184;9.850;2023-11-22T01:23:45;29.67;;;21.17;;
54545;SDS011;40444;45.184;9.850;2023-11-22T01:26:14;31.08;;;21.48;;
54545;SDS011;40444;45.184;9.850;2023-11-22T01:28:45;32.55;;;21.98;;
54545;SDS011;40444;45.184;9.850;2023-11-22T01:31:14;32.15;;;22.00;;
54545;SDS011;40444;45.184;9.850;2023-11-22T01:33:43;34.55;;;22.77;;
54545;SDS011;40444;45.184;9.850;2023-11-22T01:36:11;32.60;;;22.73;;
54545;SDS011;40444;45.184;9.850;2023-11-22T01:38:40;29.67;;;21.63;;
54545;SDS011;40444;45.184;9.850;2023-11-22T01:41:09;31.20;;;20.92;;
54545;SDS011;40444;45.184;9.850;2023-11-22T01:43:38;31.67;;;20.98;;
54545;SDS011;40444;45.184;9.850;2023-11-22T01:46:08;29.67;;;22.33;;
54545;SDS011;40444;45.184;9.850;2023-11-22T01:48:39;30.63;;;21.35;;
54545;SDS011;40444;45.184;9.850;2023-11-22T01:51:07;27.60;;;20.75;;
54545;SDS011;40444;45.184;9.850;2023-11-22T01:53:36;28.27;;;20.95;;
54545;SDS011;40444;45.184;9.850;2023-11-22T01:56:05;28.40;;;20.15;;
54545;SDS011;40444;45.184;9.850;2023-11-22T01:58:34;26.02;;;19.83;;
54545;SDS011;40444;45.184;9.850;2023-11-22T02:01:03;25.60;;;19.58;;
54545;SDS011;40444;45.184;9.850;2023-11-22T02:03:32;25.88;;;21.27;;
54545;SDS011;40444;45.184;9.850;2023-11-22T02:06:01;25.80;;;19.42;;
54545;SDS011;40444;45.184;9.850;2023-11-22T02:08:29;25.67;;;19.58;;
54545;SDS011;40444;45.184;9.850;2023-11-22T02:10:58;30.08;;;21.08;;
54545;SDS011;40444;45.184;9.850;2023-11-22T02:13:32;28.92;;;21.50;;
54545;SDS011;40444;45.184;9.850;2023-11-22T02:16:01;26.88;;;20.77;;
54545;SDS011;40444;45.184;9.850;2023-11-22T02:18:30;31.33;;;22.75;;
54545;SDS011;40444;45.184;9.850;2023-11-22T02:21:00;29.80;;;22.50;;
54545;SDS011;40444;45.184;9.850;2023-11-22T02:23:28;31.98;;;22.45;;
54545;SDS011;40444;45.184;9.850;2023-11-22T02:25:56;30.90;;;22.52;;
54545;SDS011;40444;45.184;9.850;2023-11-22T02:28:29;28.90;;;22.02;;
54545;SDS011;40444;45.184;9.850;2023-11-22T02:30:58;25.77;;;20.42;;
54545;SDS011;40444;45.184;9.850;2023-11-22T02:33:29;26.10;;;19.75;;
54545;SDS011;40444;45.184;9.850;2023-11-22T02:35:58;23.30;;;18.95;;
54545;SDS011;40444;45.184;9.850;2023-11-22T02:38:26;22.20;;;18.10;;
54545;SDS011;40444;45.184;9.850;2023-11-22T02:40:56;21.48;;;17.48;;
54545;SDS011;40444;45.184;9.850;2023-11-22T02:43:24;24.33;;;18.42;;
54545;SDS011;40444;45.184;9.850;2023-11-22T02:45:53;24.63;;;20.48;;
54545;SDS011;40444;45.184;9.850;2023-11-22T02:48:22;26.48;;;21.05;;
54545;SDS011;40444;45.184;9.850;2023-11-22T02:50:50;26.55;;;20.35;;
54545;SDS011;40444;45.184;9.850;2023-11-22T02:53:21;21.60;;;18.75;;
54545;SDS011;40444;45.184;9.850;2023-11-22T02:55:51;21.42;;;18.02;;
54545;SDS011;40444;45.184;9.850;2023-11-22T02:58:19;22.73;;;18.48;;
54545;SDS011;40444;45.184;9.850;2023-11-22T03:00:48;24.40;;;19.67;;
54545;SDS011;40444;45.184;9.850;2023-11-22T03:03:17;26.30;;;19.45;;
54545;SDS011;40444;45.184;9.850;2023-11-22T03:05:45;25.50;;;19.75;;
54545;SDS011;40444;45.184;9.850;2023-11-22T03:08:13;23.92;;;17.90;;
54545;SDS011;40444;45.184;9.850;2023-11-22T03:10:44;21.83;;;18.20;;
54545;SDS011;40444;45.184;9.850;2023-11-22T03:13:12;25.23;;;19.98;;
54545;SDS011;40444;45.184;9.850;2023-11-22T03:15:41;27.98;;;20.95;;
54545;SDS011;40444;45.184;9.850;2023-11-22T03:18:10;28.73;;;21.52;;
54545;SDS011;40444;45.184;9.850;2023-11-22T03:20:39;29.83;;;21.67;;
54545;SDS011;40444;45.184;9.850;2023-11-22T03:23:10;27.45;;;21.42;;
54545;SDS011;40444;45.184;9.850;2023-11-22T03:25:38;27.45;;;21.52;;
54545;SDS011;40444;45.184;9.850;2023-11-22T03:28:07;26.00;;;21.40;;
54545;SDS011;40444;45.184;9.850;2023-11-22T03:30:36;22.65;;;19.50;;
54545;SDS011;40444;45.184;9.850;2023-11-22T03:33:04;21.77;;;18.42;;
54545;SDS011;40444;45.184;9.850;2023-11-22T03:35:33;28.92;;;22.70;;
54545;SDS011;40444;45.184;9.850;2023-11-22T03:38:02;34.63;;;25.83;;
54545;SDS011;40444;45.184;9.850;2023-11-22T03:40:30;35.50;;;25.67;;
54545;SDS011;40444;45.184;9.850;2023-11-22T03:42:58;33.20;;;26.63;;
54545;SDS011;40444;45.184;9.850;2023-11-22T03:45:27;31.83;;;25.13;;
54545;SDS011;40444;45.184;9.850;2023-11-22T03:47:55;29.10;;;24.10;;
54545;SDS011;40444;45.184;9.850;2023-11-22T03:50:26;28.70;;;23.77;;
54545;SDS011;40444;45.184;9.850;2023-11-22T03:52:55;28.83;;;22.77;;
54545;SDS011;40444;45.184;9.850;2023-11-22T03:55:23;28.17;;;22.90;;
54545;SDS011;40444;45.184;9.850;2023-11-22T03:57:52;29.40;;;23.23;;
54545;SDS011;40444;45.184;9.850;2023-11-22T04:00:21;32.75;;;24.73;;
54545;SDS011;40444;45.184;9.850;2023-11-22T04:02:50;34.83;;;24.52;;
54545;SDS011;40444;45.184;9.850;2023-11-22T04:05:19;32.25;;;23.88;;
54545;SDS011;40444;45.184;9.850;2023-11-22T04:07:48;32.30;;;24.27;;
54545;SDS011;40444;45.184;9.850;2023-11-22T04:10:17;28.75;;;22.67;;
54545;SDS011;40444;45.184;9.850;2023-11-22T04:12:47;26.15;;;20.35;;
54545;SDS011;40444;45.184;9.850;2023-11-22T04:15:15;24.63;;;20.23;;
54545;SDS011;40444;45.184;9.850;2023-11-22T04:17:44;25.23;;;20.73;;
54545;SDS011;40444;45.184;9.850;2023-11-22T04:20:13;21.67;;;17.70;;
54545;SDS011;40444;45.184;9.850;2023-11-22T04:22:43;22.75;;;19.17;;
54545;SDS011;40444;45.184;9.850;2023-11-22T04:25:15;20.25;;;16.67;;
54545;SDS011;40444;45.184;9.850;2023-11-22T04:27:44;20.25;;;17.67;;
54545;SDS011;40444;45.184;9.850;2023-11-22T04:30:12;24.65;;;19.95;;
54545;SDS011;40444;45.184;9.850;2023-11-22T04:32:42;24.58;;;19.70;;
54545;SDS011;40444;45.184;9.850;2023-11-22T04:35:12;22.55;;;18.63;;
54545;SDS011;40444;45.184;9.850;2023-11-22T04:37:41;21.90;;;18.30;;
54545;SDS011;40444;45.184;9.850;2023-11-22T04:40:11;19.00;;;16.60;;
54545;SDS011;40444;45.184;9.850;2023-11-22T04:42:41;18.48;;;16.58;;
54545;SDS011;40444;45.184;9.850;2023-11-22T04:45:10;19.20;;;16.55;;
54545;SDS011;40444;45.184;9.850;2023-11-22T04:47:38;17.45;;;15.48;;
54545;SDS011;40444;45.184;9.850;2023-11-22T04:50:06;19.02;;;16.77;;
54545;SDS011;40444;45.184;9.850;2023-11-22T04:52:35;18.25;;;16.13;;
54545;SDS011;40444;45.184;9.850;2023-11-22T04:55:03;17.13;;;15.20;;
54545;SDS011;40444;45.184;9.850;2023-11-22T04:57:32;19.42;;;17.30;;
54545;SDS011;40444;45.184;9.850;2023-11-22T05:00:01;18.92;;;16.90;;
54545;SDS011;40444;45.184;9.850;2023-11-22T05:02:32;19.58;;;16.40;;
54545;SDS011;40444;45.184;9.850;2023-11-22T05:05:01;21.65;;;18.73;;
54545;SDS011;40444;45.184;9.850;2023-11-22T05:07:30;20.80;;;16.77;;
54545;SDS011;40444;45.184;9.850;2023-11-22T05:09:58;21.02;;;17.77;;
54545;SDS011;40444;45.184;9.850;2023-11-22T05:12:27;22.58;;;18.25;;
54545;SDS011;40444;45.184;9.850;2023-11-22T05:14:55;26.23;;;21.08;;
54545;SDS011;40444;45.184;9.850;2023-11-22T05:17:24;23.73;;;19.35;;
54545;SDS011;40444;45.184;9.850;2023-11-22T05:19:52;24.80;;;19.45;;
54545;SDS011;40444;45.184;9.850;2023-11-22T05:22:21;21.65;;;17.52;;
54545;SDS011;40444;45.184;9.850;2023-11-22T05:24:50;21.38;;;17.35;;
54545;SDS011;40444;45.184;9.850;2023-11-22T05:27:19;22.95;;;17.85;;
54545;SDS011;40444;45.184;9.850;2023-11-22T05:29:47;23.40;;;17.67;;
54545;SDS011;40444;45.184;9.850;2023-11-22T05:32:21;22.77;;;18.70;;
54545;SDS011;40444;45.184;9.850;2023-11-22T05:34:50;20.67;;;18.48;;
54545;SDS011;40444;45.184;9.850;2023-11-22T05:37:19;22.92;;;18.92;;
54545;SDS011;40444;45.184;9.850;2023-11-22T05:39:49;22.55;;;18.77;;
54545;SDS011;40444;45.184;9.850;2023-11-22T05:42:17;24.98;;;19.52;;
54545;SDS011;40444;45.184;9.850;2023-11-22T16:49:01;17.88;;;11.90;;
54545;SDS011;40444;45.184;9.850;2023-11-22T16:51:47;19.48;;;11.40;;
54545;SDS011;40444;45.184;9.850;2023-11-22T16:54:32;14.82;;;10.05;;
54545;SDS011;40444;45.184;9.850;2023-11-22T16:57:21;15.32;;;8.35;;
54545;SDS011;40444;45.184;9.850;2023-11-22T17:00:06;13.18;;;8.60;;
54545;SDS011;40444;45.184;9.850;2023-11-22T17:03:06;10.60;;;8.07;;
54545;SDS011;40444;45.184;9.850;2023-11-22T17:05:58;11.32;;;8.07;;
54545;SDS011;40444;45.184;9.850;2023-11-22T17:08:28;11.18;;;8.32;;
54545;SDS011;40444;45.184;9.850;2023-11-22T17:16:32;14.48;;;8.77;;
54545;SDS011;40444;45.184;9.850;2023-11-22T17:19:21;13.98;;;9.85;;
54545;SDS011;40444;45.184;9.850;2023-11-22T17:22:13;14.18;;;9.80;;
54545;SDS011;40444;45.184;9.850;2023-11-22T17:26:14;21.70;;;12.85;;
54545;SDS011;40444;45.184;9.850;2023-11-22T17:29:26;22.58;;;15.45;;
54545;SDS011;40444;45.184;9.850;2023-11-22T17:32:02;24.60;;;16.25;;
54545;SDS011;40444;45.184;9.850;2023-11-22T17:35:34;27.52;;;17.48;;
54545;SDS011;40444;45.184;9.850;2023-11-22T17:38:20;29.30;;;17.98;;
54545;SDS011;40444;45.184;9.850;2023-11-22T17:46:04;24.65;;;18.00;;
54545;SDS011;40444;45.184;9.850;2023-11-22T17:50:05;23.80;;;16.70;;
54545;SDS011;40444;45.184;9.850;2023-11-22T17:53:18;21.30;;;15.70;;
54545;SDS011;40444;45.184;9.850;2023-11-22T17:56:11;20.98;;;15.13;;
54545;SDS011;40444;45.184;9.850;2023-11-22T17:59:23;20.83;;;14.15;;
54545;SDS011;40444;45.184;9.850;2023-11-22T18:02:09;20.67;;;14.27;;
54545;SDS011;40444;45.184;9.850;2023-11-22T18:06:26;22.25;;;15.32;;
54545;SDS011;40444;45.184;9.850;2023-11-22T18:12:24;21.83;;;15.57;;
54545;SDS011;40444;45.184;9.850;2023-11-22T18:15:15;20.80;;;14.05;;
54545;SDS011;40444;45.184;9.850;2023-11-22T18:18:21;14.55;;;10.88;;
54545;SDS011;40444;45.184;9.850;2023-11-22T18:21:50;17.40;;;12.55;;
54545;SDS011;40444;45.184;9.850;2023-11-22T18:25:17;28.42;;;16.20;;
54545;SDS011;40444;45.184;9.850;2023-11-22T18:28:20;12.82;;;10.00;;
54545;SDS011;40444;45.184;9.850;2023-11-22T18:31:57;14.90;;;8.18;;
54545;SDS011;40444;45.184;9.850;2023-11-22T18:35:20;9.15;;;6.32;;
54545;SDS011;40444;45.184;9.850;2023-11-22T18:38:50;10.32;;;5.93;;
54545;SDS011;40444;45.184;9.850;2023-11-22T18:41:48;10.38;;;6.55;;
54545;SDS011;40444;45.184;9.850;2023-11-22T18:44:40;12.45;;;8.43;;
54545;SDS011;40444;45.184;9.850;2023-11-22T18:47:27;11.85;;;7.63;;
54545;SDS011;40444;45.184;9.850;2023-11-22T18:50:44;12.63;;;8.77;;
54545;SDS011;40444;45.184;9.850;2023-11-22T18:53:52;13.52;;;8.23;;
54545;SDS011;40444;45.184;9.850;2023-11-22T19:00:39;19.88;;;7.75;;
54545;SDS011;40444;45.184;9.850;2023-11-22T19:04:35;12.73;;;8.30;;
54545;SDS011;40444;45.184;9.850;2023-11-22T19:08:37;14.02;;;9.18;;
54545;SDS011;40444;45.184;9.850;2023-11-22T19:11:37;14.98;;;10.05;;
54545;SDS011;40444;45.184;9.850;2023-11-22T19:14:48;15.68;;;12.13;;
54545;SDS011;40444;45.184;9.850;2023-11-22T19:17:26;13.48;;;11.38;;
54545;SDS011;40444;45.184;9.850;2023-11-22T19:20:27;18.48;;;11.02;;
54545;SDS011;40444;45.184;9.850;2023-11-22T19:23:11;17.77;;;13.18;;
54545;SDS011;40444;45.184;9.850;2023-11-22T19:26:23;18.85;;;12.02;;
54545;SDS011;40444;45.184;9.850;2023-11-22T19:29:29;15.57;;;10.95;;
54545;SDS011;40444;45.184;9.850;2023-11-22T19:32:15;16.90;;;11.80;;
54545;SDS011;40444;45.184;9.850;2023-11-22T19:35:01;19.92;;;13.65;;
54545;SDS011;40444;45.184;9.850;2023-11-22T19:37:47;18.83;;;14.05;;
54545;SDS011;40444;45.184;9.850;2023-11-22T19:40:40;21.17;;;14.90;;
54545;SDS011;40444;45.184;9.850;2023-11-22T19:43:27;33.38;;;21.60;;
54545;SDS011;40444;45.184;9.850;2023-11-22T19:46:19;13.23;;;10.43;;
54545;SDS011;40444;45.184;9.850;2023-11-22T19:49:02;15.23;;;10.80;;
54545;SDS011;40444;45.184;9.850;2023-11-22T19:51:53;17.48;;;13.18;;
54545;SDS011;40444;45.184;9.850;2023-11-22T19:54:37;18.65;;;14.93;;
54545;SDS011;40444;45.184;9.850;2023-11-22T19:57:31;17.95;;;15.23;;
54545;SDS011;40444;45.184;9.850;2023-11-22T20:00:15;20.90;;;14.43;;
54545;SDS011;40444;45.184;9.850;2023-11-22T20:02:59;15.43;;;12.45;;
54545;SDS011;40444;45.184;9.850;2023-11-22T20:05:42;16.27;;;11.77;;
54545;SDS011;40444;45.184;9.850;2023-11-22T20:08:29;15.38;;;10.32;;
54545;SDS011;40444;45.184;9.850;2023-11-22T20:11:15;12.63;;;8.98;;
54545;SDS011;40444;45.184;9.850;2023-11-22T20:13:59;13.70;;;9.25;;
54545;SDS011;40444;45.184;9.850;2023-11-22T20:16:43;10.65;;;7.88;;
54545;SDS011;40444;45.184;9.850;2023-11-22T20:19:24;12.35;;;8.13;;
54545;SDS011;40444;45.184;9.850;2023-11-22T20:22:07;10.85;;;7.47;;
54545;SDS011;40444;45.184;9.850;2023-11-22T20:24:55;11.93;;;8.02;;
54545;SDS011;40444;45.184;9.850;2023-11-22T20:27:44;13.30;;;8.88;;
54545;SDS011;40444;45.184;9.850;2023-11-22T20:30:41;11.82;;;8.15;;
54545;SDS011;40444;45.184;9.850;2023-11-22T20:33:23;12.40;;;8.50;;
54545;SDS011;40444;45.184;9.850;2023-11-22T20:36:35;11.93;;;8.23;;
54545;SDS011;40444;45.184;9.850;2023-11-22T20:39:37;13.15;;;8.75;;
54545;SDS011;40444;45.184;9.850;2023-11-22T20:42:25;10.50;;;7.82;;
54545;SDS011;40444;45.184;9.850;2023-11-22T20:45:32;12.70;;;9.05;;
54545;SDS011;40444;45.184;9.850;2023-11-22T20:48:18;13.18;;;8.85;;
54545;SDS011;40444;45.184;9.850;2023-11-22T20:51:17;12.33;;;10.33;;
54545;SDS011;40444;45.184;9.850;2023-11-22T20:54:27;14.82;;;8.80;;
54545;SDS011;40444;45.184;9.850;2023-11-22T20:57:44;12.48;;;8.60;;
54545;SDS011;40444;45.184;9.850;2023-11-22T21:00:32;11.95;;;9.10;;
54545;SDS011;40444;45.184;9.850;2023-11-22T21:03:24;12.02;;;9.57;;
54545;SDS011;40444;45.184;9.850;2023-11-22T21:07:03;13.18;;;8.63;;
54545;SDS011;40444;45.184;9.850;2023-11-22T21:09:58;12.55;;;8.73;;
54545;SDS011;40444;45.184;9.850;2023-11-22T21:14:02;16.02;;;10.82;;
54545;SDS011;40444;45.184;9.850;2023-11-22T21:17:40;20.20;;;13.10;;
54545;SDS011;40444;45.184;9.850;2023-11-22T21:24:20;24.85;;;16.08;;
54545;SDS011;40444;45.184;9.850;2023-11-22T21:27:07;23.85;;;15.65;;
54545;SDS011;40444;45.184;9.850;2023-11-22T21:30:35;25.77;;;17.77;;
54545;SDS011;40444;45.184;9.850;2023-11-22T21:35:07;23.63;;;16.30;;
54545;SDS011;40444;45.184;9.850;2023-11-22T21:38:17;20.40;;;14.73;;
54545;SDS011;40444;45.184;9.850;2023-11-22T21:41:04;24.52;;;15.60;;
54545;SDS011;40444;45.184;9.850;2023-11-22T21:43:52;19.45;;;14.32;;
54545;SDS011;40444;45.184;9.850;2023-11-22T21:46:38;22.02;;;15.95;;
54545;SDS011;40444;45.184;9.850;2023-11-22T21:49:32;22.70;;;16.65;;
54545;SDS011;40444;45.184;9.850;2023-11-22T21:52:55;24.35;;;16.30;;
54545;SDS011;40444;45.184;9.850;2023-11-22T21:55:38;25.77;;;15.93;;
54545;SDS011;40444;45.184;9.850;2023-11-22T21:58:07;22.67;;;14.80;;
54545;SDS011;40444;45.184;9.850;2023-11-22T22:00:55;18.83;;;14.55;;
54545;SDS011;40444;45.184;9.850;2023-11-22T22:03:40;21.35;;;14.48;;
54545;SDS011;40444;45.184;9.850;2023-11-22T22:06:24;22.27;;;15.85;;
54545;SDS011;40444;45.184;9.850;2023-11-22T22:08:54;26.02;;;17.17;;
54545;SDS011;40444;45.184;9.850;2023-11-22T22:11:40;22.67;;;16.17;;
54545;SDS011;40444;45.184;9.850;2023-11-22T22:14:43;23.33;;;15.27;;
54545;SDS011;40444;45.184;9.850;2023-11-22T22:25:34;20.10;;;14.30;;
54545;SDS011;40444;45.184;9.850;2023-11-22T22:28:13;18.70;;;13.40;;
54545;SDS011;40444;45.184;9.850;2023-11-22T22:31:03;19.40;;;13.18;;
54545;SDS011;40444;45.184;9.850;2023-11-22T22:33:39;21.83;;;15.13;;
54545;SDS011;40444;45.184;9.850;2023-11-22T22:36:21;21.08;;;14.23;;
54545;SDS011;40444;45.184;9.850;2023-11-22T22:38:53;24.40;;;16.20;;
54545;SDS011;40444;45.184;9.850;2023-11-22T22:41:26;21.60;;;15.38;;
54545;SDS011;40444;45.184;9.850;2023-11-22T22:44:04;27.13;;;16.50;;
54545;SDS011;40444;45.184;9.850;2023-11-22T22:46:50;20.58;;;15.25;;
54545;SDS011;40444;45.184;9.850;2023-11-22T22:49:34;23.40;;;15.63;;
54545;SDS011;40444;45.184;9.850;2023-11-22T22:52:43;21.20;;;14.98;;
54545;SDS011;40444;45.184;9.850;2023-11-22T22:55:15;19.75;;;14.73;;
54545;SDS011;40444;45.184;9.850;2023-11-22T22:58:06;18.90;;;14.85;;
54545;SDS011;40444;45.184;9.850;2023-11-22T23:00:41;17.73;;;13.18;;
54545;SDS011;40444;45.184;9.850;2023-11-22T23:03:25;19.77;;;14.32;;
54545;SDS011;40444;45.184;9.850;2023-11-22T23:05:55;20.35;;;14.70;;
54545;SDS011;40444;45.184;9.850;2023-11-22T23:08:24;22.13;;;15.00;;
54545;SDS011;40444;45.184;9.850;2023-11-22T23:11:08;18.10;;;13.68;;
54545;SDS011;40444;45.184;9.850;2023-11-22T23:13:52;20.30;;;13.75;;
54545;SDS011;40444;45.184;9.850;2023-11-22T23:16:32;18.83;;;12.88;;
54545;SDS011;40444;45.184;9.850;2023-11-22T23:19:03;19.38;;;13.50;;
54545;SDS011;40444;45.184;9.850;2023-11-22T23:21:46;18.10;;;13.25;;
54545;SDS011;40444;45.184;9.850;2023-11-22T23:24:19;22.33;;;14.40;;
54545;SDS011;40444;45.184;9.850;2023-11-22T23:27:02;18.35;;;13.57;;
54545;SDS011;40444;45.184;9.850;2023-11-22T23:29:48;16.35;;;12.80;;
54545;SDS011;40444;45.184;9.850;2023-11-22T23:32:27;18.90;;;13.07;;
54545;SDS011;40444;45.184;9.850;2023-11-22T23:34:59;16.58;;;13.18;;
54545;SDS011;40444;45.184;9.850;2023-11-22T23:37:45;16.42;;;12.88;;
54545;SDS011;40444;45.184;9.850;2023-11-22T23:40:17;17.67;;;13.13;;
54545;SDS011;40444;45.184;9.850;2023-11-22T23:42:54;18.43;;;14.37;;
54545;SDS011;40444;45.184;9.850;2023-11-22T23:45:24;21.52;;;15.07;;
54545;SDS011;40444;45.184;9.850;2023-11-22T23:47:53;17.65;;;14.65;;
54545;SDS011;40444;45.184;9.850;2023-11-22T23:50:25;17.60;;;14.07;;
54545;SDS011;40444;45.184;9.850;2023-11-22T23:52:56;20.48;;;15.70;;
54545;SDS011;40444;45.184;9.850;2023-11-22T23:55:27;18.92;;;14.45;;
54545;SDS011;40444;45.184;9.850;2023-11-22T23:57:56;16.35;;;13.27;;
